sensor_id;sensor_type;location;lat;lon;timestamp;pressure;altitude;pressure_sealevel;temperature;humidity
52957;BME280;38819;42.692;23.342;2022-09-16T00:01:24;94755.03;;;22.19;53.02
52957;BME280;38819;42.692;23.342;2022-09-16T00:03:53;94773.44;;;22.15;53.45
52957;BME280;38819;42.692;23.342;2022-09-16T00:06:25;94767.88;;;22.08;53.91
52957;BME280;38819;42.692;23.342;2022-09-16T00:08:51;94753.25;;;22.00;53.85
52957;BME280;38819;42.692;23.342;2022-09-16T00:11:18;94758.69;;;21.93;53.50
52957;BME280;38819;42.692;23.342;2022-09-16T00:13:44;94761.41;;;21.89;53.38
52957;BME280;38819;42.692;23.342;2022-09-16T00:16:12;94762.16;;;21.86;53.72
52957;BME280;38819;42.692;23.342;2022-09-16T00:18:40;94770.78;;;21.84;54.06
52957;BME280;38819;42.692;23.342;2022-09-16T00:21:07;94769.94;;;21.77;54.08
52957;BME280;38819;42.692;23.342;2022-09-16T00:23:34;94766.78;;;21.78;54.31
52957;BME280;38819;42.692;23.342;2022-09-16T00:25:59;94764.03;;;21.78;54.28
52957;BME280;38819;42.692;23.342;2022-09-16T00:28:25;94758.16;;;21.80;55.26
52957;BME280;38819;42.692;23.342;2022-09-16T00:30:50;94754.16;;;21.70;55.29
52957;BME280;38819;42.692;23.342;2022-09-16T00:33:16;94747.09;;;21.73;54.84
52957;BME280;38819;42.692;23.342;2022-09-16T00:35:42;94747.84;;;21.70;54.38
52957;BME280;38819;42.692;23.342;2022-09-16T00:38:07;94759.22;;;21.68;54.92
52957;BME280;38819;42.692;23.342;2022-09-16T00:40:33;94756.47;;;21.68;55.47
52957;BME280;38819;42.692;23.342;2022-09-16T00:42:59;94762.78;;;21.69;55.85
52957;BME280;38819;42.692;23.342;2022-09-16T00:45:25;94761.47;;;21.59;56.25
52957;BME280;38819;42.692;23.342;2022-09-16T00:47:59;94756.34;;;21.57;56.03
52957;BME280;38819;42.692;23.342;2022-09-16T00:50:31;94760.22;;;21.53;56.62
52957;BME280;38819;42.692;23.342;2022-09-16T00:52:58;94757.84;;;21.51;56.83
52957;BME280;38819;42.692;23.342;2022-09-16T00:55:27;94756.66;;;21.49;56.55
52957;BME280;38819;42.692;23.342;2022-09-16T00:58:01;94768.00;;;21.47;56.69
52957;BME280;38819;42.692;23.342;2022-09-16T01:00:29;94759.69;;;21.43;56.63
52957;BME280;38819;42.692;23.342;2022-09-16T01:02:55;94771.06;;;21.42;56.59
52957;BME280;38819;42.692;23.342;2022-09-16T01:05:22;94771.88;;;21.46;56.86
52957;BME280;38819;42.692;23.342;2022-09-16T01:07:52;94773.31;;;21.36;57.37
52957;BME280;38819;42.692;23.342;2022-09-16T01:10:21;94778.75;;;21.33;57.52
52957;BME280;38819;42.692;23.342;2022-09-16T01:12:52;94780.63;;;21.25;57.37
52957;BME280;38819;42.692;23.342;2022-09-16T01:15:22;94784.91;;;21.22;57.63
52957;BME280;38819;42.692;23.342;2022-09-16T01:17:56;94787.66;;;21.22;57.57
52957;BME280;38819;42.692;23.342;2022-09-16T01:26:13;94788.31;;;21.12;57.65
52957;BME280;38819;42.692;23.342;2022-09-16T01:31:42;94785.59;;;21.16;56.49
52957;BME280;38819;42.692;23.342;2022-09-16T01:40:15;94767.13;;;21.13;57.71
52957;BME280;38819;42.692;23.342;2022-09-16T01:52:01;94774.28;;;21.21;57.51
52957;BME280;38819;42.692;23.342;2022-09-16T01:54:40;94780.06;;;21.12;57.77
52957;BME280;38819;42.692;23.342;2022-09-16T01:57:26;94776.47;;;21.08;58.03
52957;BME280;38819;42.692;23.342;2022-09-16T02:00:01;94781.22;;;21.11;56.66
52957;BME280;38819;42.692;23.342;2022-09-16T02:02:29;94778.88;;;21.13;56.47
52957;BME280;38819;42.692;23.342;2022-09-16T02:04:59;94762.09;;;21.18;56.28
52957;BME280;38819;42.692;23.342;2022-09-16T02:07:30;94763.63;;;21.16;55.94
52957;BME280;38819;42.692;23.342;2022-09-16T02:10:02;94764.41;;;21.16;55.85
52957;BME280;38819;42.692;23.342;2022-09-16T02:12:34;94758.09;;;21.12;56.19
52957;BME280;38819;42.692;23.342;2022-09-16T02:15:06;94751.38;;;21.09;56.04
52957;BME280;38819;42.692;23.342;2022-09-16T02:17:37;94758.16;;;21.16;55.96
52957;BME280;38819;42.692;23.342;2022-09-16T02:20:12;94766.06;;;21.21;56.26
52957;BME280;38819;42.692;23.342;2022-09-16T02:22:42;94747.25;;;21.23;56.26
52957;BME280;38819;42.692;23.342;2022-09-16T02:25:10;94759.81;;;21.24;56.81
52957;BME280;38819;42.692;23.342;2022-09-16T02:27:38;94752.84;;;21.30;56.37
52957;BME280;38819;42.692;23.342;2022-09-16T02:30:11;94745.59;;;21.18;57.45
52957;BME280;38819;42.692;23.342;2022-09-16T02:32:42;94751.16;;;20.91;57.15
52957;BME280;38819;42.692;23.342;2022-09-16T02:35:14;94759.25;;;20.84;57.20
52957;BME280;38819;42.692;23.342;2022-09-16T02:37:54;94759.47;;;20.99;56.56
52957;BME280;38819;42.692;23.342;2022-09-16T02:40:25;94769.00;;;21.05;57.35
52957;BME280;38819;42.692;23.342;2022-09-16T02:42:51;94772.56;;;21.09;57.85
52957;BME280;38819;42.692;23.342;2022-09-16T02:45:21;94765.44;;;21.04;58.11
52957;BME280;38819;42.692;23.342;2022-09-16T02:48:20;94763.09;;;21.06;58.06
52957;BME280;38819;42.692;23.342;2022-09-16T02:56:43;94765.03;;;21.02;57.93
52957;BME280;38819;42.692;23.342;2022-09-16T02:59:11;94780.72;;;21.02;57.74
52957;BME280;38819;42.692;23.342;2022-09-16T03:01:43;94784.25;;;21.02;57.58
52957;BME280;38819;42.692;23.342;2022-09-16T03:04:11;94798.34;;;21.01;57.50
52957;BME280;38819;42.692;23.342;2022-09-16T03:06:37;94789.38;;;21.04;57.09
52957;BME280;38819;42.692;23.342;2022-09-16T03:09:05;94790.22;;;21.12;57.67
52957;BME280;38819;42.692;23.342;2022-09-16T03:12:01;94799.69;;;21.14;57.13
52957;BME280;38819;42.692;23.342;2022-09-16T03:14:52;94804.09;;;21.19;57.99
52957;BME280;38819;42.692;23.342;2022-09-16T03:25:19;94815.13;;;21.22;57.72
52957;BME280;38819;42.692;23.342;2022-09-16T03:30:21;94805.72;;;21.23;56.98
52957;BME280;38819;42.692;23.342;2022-09-16T03:32:59;94788.41;;;21.19;57.93
52957;BME280;38819;42.692;23.342;2022-09-16T03:35:43;94797.00;;;21.18;58.90
52957;BME280;38819;42.692;23.342;2022-09-16T03:38:11;94794.66;;;21.20;58.36
52957;BME280;38819;42.692;23.342;2022-09-16T03:40:38;94795.03;;;21.18;58.22
52957;BME280;38819;42.692;23.342;2022-09-16T03:43:12;94790.41;;;21.22;58.16
52957;BME280;38819;42.692;23.342;2022-09-16T03:45:38;94793.84;;;21.16;58.56
52957;BME280;38819;42.692;23.342;2022-09-16T03:48:05;94785.50;;;21.08;58.20
52957;BME280;38819;42.692;23.342;2022-09-16T03:50:30;94771.19;;;20.96;57.84
52957;BME280;38819;42.692;23.342;2022-09-16T03:52:56;94773.22;;;20.99;58.64
52957;BME280;38819;42.692;23.342;2022-09-16T03:55:21;94768.13;;;21.01;57.89
52957;BME280;38819;42.692;23.342;2022-09-16T03:57:46;94780.66;;;20.98;58.97
52957;BME280;38819;42.692;23.342;2022-09-16T04:00:12;94778.16;;;20.89;58.15
52957;BME280;38819;42.692;23.342;2022-09-16T04:02:40;94791.19;;;20.96;58.50
52957;BME280;38819;42.692;23.342;2022-09-16T04:05:06;94794.81;;;21.00;58.63
52957;BME280;38819;42.692;23.342;2022-09-16T04:07:33;94801.84;;;21.01;57.63
52957;BME280;38819;42.692;23.342;2022-09-16T04:09:58;94794.47;;;21.05;58.21
52957;BME280;38819;42.692;23.342;2022-09-16T04:12:24;94801.94;;;21.05;58.85
52957;BME280;38819;42.692;23.342;2022-09-16T04:14:49;94807.78;;;21.03;59.49
52957;BME280;38819;42.692;23.342;2022-09-16T04:17:15;94819.50;;;21.00;59.85
52957;BME280;38819;42.692;23.342;2022-09-16T04:19:40;94817.91;;;20.99;59.61
52957;BME280;38819;42.692;23.342;2022-09-16T04:22:05;94825.41;;;21.02;59.08
52957;BME280;38819;42.692;23.342;2022-09-16T04:24:31;94836.34;;;20.99;59.04
52957;BME280;38819;42.692;23.342;2022-09-16T04:26:56;94836.81;;;21.04;58.39
52957;BME280;38819;42.692;23.342;2022-09-16T04:29:22;94835.25;;;21.03;58.39
52957;BME280;38819;42.692;23.342;2022-09-16T04:31:47;94823.13;;;21.08;58.19
52957;BME280;38819;42.692;23.342;2022-09-16T04:34:13;94833.44;;;21.15;58.94
52957;BME280;38819;42.692;23.342;2022-09-16T04:36:39;94829.97;;;21.18;58.85
52957;BME280;38819;42.692;23.342;2022-09-16T04:39:04;94831.19;;;21.20;59.20
52957;BME280;38819;42.692;23.342;2022-09-16T04:41:30;94821.75;;;21.21;59.59
52957;BME280;38819;42.692;23.342;2022-09-16T04:43:58;94827.22;;;21.18;59.34
52957;BME280;38819;42.692;23.342;2022-09-16T04:46:24;94828.00;;;21.18;59.36
52957;BME280;38819;42.692;23.342;2022-09-16T04:48:50;94825.94;;;21.12;59.23
52957;BME280;38819;42.692;23.342;2022-09-16T04:51:17;94839.38;;;21.17;59.74
52957;BME280;38819;42.692;23.342;2022-09-16T04:53:43;94839.41;;;21.20;59.56
52957;BME280;38819;42.692;23.342;2022-09-16T04:56:18;94843.63;;;21.14;59.02
52957;BME280;38819;42.692;23.342;2022-09-16T04:58:49;94838.25;;;21.21;57.66
52957;BME280;38819;42.692;23.342;2022-09-16T05:01:17;94830.75;;;21.18;59.04
52957;BME280;38819;42.692;23.342;2022-09-16T05:03:44;94829.22;;;21.21;59.34
52957;BME280;38819;42.692;23.342;2022-09-16T05:06:15;94823.78;;;21.24;59.45
52957;BME280;38819;42.692;23.342;2022-09-16T05:08:40;94823.41;;;21.26;60.18
52957;BME280;38819;42.692;23.342;2022-09-16T05:11:09;94828.53;;;21.27;59.45
52957;BME280;38819;42.692;23.342;2022-09-16T05:13:35;94830.91;;;21.29;59.12
52957;BME280;38819;42.692;23.342;2022-09-16T05:16:06;94822.72;;;21.33;58.96
52957;BME280;38819;42.692;23.342;2022-09-16T05:18:33;94824.75;;;21.39;59.21
52957;BME280;38819;42.692;23.342;2022-09-16T05:20:59;94824.50;;;21.48;59.55
52957;BME280;38819;42.692;23.342;2022-09-16T05:23:25;94819.88;;;21.52;59.62
52957;BME280;38819;42.692;23.342;2022-09-16T05:25:51;94810.13;;;21.58;59.41
52957;BME280;38819;42.692;23.342;2022-09-16T05:28:17;94803.19;;;21.68;58.88
52957;BME280;38819;42.692;23.342;2022-09-16T05:30:42;94802.91;;;21.77;58.00
52957;BME280;38819;42.692;23.342;2022-09-16T05:33:08;94813.63;;;21.86;57.07
52957;BME280;38819;42.692;23.342;2022-09-16T05:35:33;94799.19;;;21.96;56.75
52957;BME280;38819;42.692;23.342;2022-09-16T05:37:59;94799.72;;;22.09;56.13
52957;BME280;38819;42.692;23.342;2022-09-16T05:40:25;94793.16;;;22.20;55.72
52957;BME280;38819;42.692;23.342;2022-09-16T05:42:51;94798.78;;;22.31;55.15
52957;BME280;38819;42.692;23.342;2022-09-16T05:45:16;94791.78;;;22.37;54.90
52957;BME280;38819;42.692;23.342;2022-09-16T05:47:49;94786.34;;;22.45;54.87
52957;BME280;38819;42.692;23.342;2022-09-16T05:50:15;94787.59;;;22.51;55.16
52957;BME280;38819;42.692;23.342;2022-09-16T05:52:40;94782.50;;;22.56;53.73
52957;BME280;38819;42.692;23.342;2022-09-16T05:55:06;94787.31;;;22.67;53.64
52957;BME280;38819;42.692;23.342;2022-09-16T05:57:31;94803.09;;;22.73;54.01
52957;BME280;38819;42.692;23.342;2022-09-16T05:59:57;94798.44;;;22.81;54.53
52957;BME280;38819;42.692;23.342;2022-09-16T06:02:22;94791.81;;;22.86;54.57
52957;BME280;38819;42.692;23.342;2022-09-16T06:04:48;94790.25;;;22.92;54.64
52957;BME280;38819;42.692;23.342;2022-09-16T06:07:14;94796.22;;;22.98;54.38
52957;BME280;38819;42.692;23.342;2022-09-16T06:09:40;94798.59;;;23.03;54.20
52957;BME280;38819;42.692;23.342;2022-09-16T06:12:06;94799.06;;;23.08;53.47
52957;BME280;38819;42.692;23.342;2022-09-16T06:14:31;94800.28;;;23.15;52.45
52957;BME280;38819;42.692;23.342;2022-09-16T06:16:57;94795.19;;;23.20;51.96
52957;BME280;38819;42.692;23.342;2022-09-16T06:19:22;94789.31;;;23.25;51.26
52957;BME280;38819;42.692;23.342;2022-09-16T06:21:47;94789.38;;;23.29;50.86
52957;BME280;38819;42.692;23.342;2022-09-16T06:24:15;94783.88;;;23.33;48.89
52957;BME280;38819;42.692;23.342;2022-09-16T06:26:43;94798.06;;;23.38;47.83
52957;BME280;38819;42.692;23.342;2022-09-16T06:29:09;94780.75;;;23.41;47.21
52957;BME280;38819;42.692;23.342;2022-09-16T06:31:36;94782.38;;;23.46;47.32
52957;BME280;38819;42.692;23.342;2022-09-16T06:34:02;94782.38;;;23.46;47.61
52957;BME280;38819;42.692;23.342;2022-09-16T06:36:32;94785.50;;;23.48;47.79
52957;BME280;38819;42.692;23.342;2022-09-16T06:38:58;94791.06;;;23.55;47.81
52957;BME280;38819;42.692;23.342;2022-09-16T06:41:24;94786.75;;;23.58;47.95
52957;BME280;38819;42.692;23.342;2022-09-16T06:43:50;94791.06;;;23.59;48.24
52957;BME280;38819;42.692;23.342;2022-09-16T06:46:26;94802.94;;;23.66;49.68
52957;BME280;38819;42.692;23.342;2022-09-16T06:48:55;94800.94;;;23.63;49.64
52957;BME280;38819;42.692;23.342;2022-09-16T06:51:28;94799.00;;;23.64;49.32
52957;BME280;38819;42.692;23.342;2022-09-16T06:54:00;94799.78;;;23.68;49.24
52957;BME280;38819;42.692;23.342;2022-09-16T06:56:25;94788.38;;;23.66;46.71
52957;BME280;38819;42.692;23.342;2022-09-16T06:58:51;94788.75;;;23.72;46.47
52957;BME280;38819;42.692;23.342;2022-09-16T07:01:38;94801.69;;;23.57;46.48
52957;BME280;38819;42.692;23.342;2022-09-16T07:04:06;94801.31;;;23.62;45.80
52957;BME280;38819;42.692;23.342;2022-09-16T07:06:34;94806.06;;;23.68;45.74
52957;BME280;38819;42.692;23.342;2022-09-16T07:09:00;94800.19;;;23.70;45.95
52957;BME280;38819;42.692;23.342;2022-09-16T07:11:26;94806.09;;;23.72;46.03
52957;BME280;38819;42.692;23.342;2022-09-16T07:13:52;94800.25;;;23.81;46.42
52957;BME280;38819;42.692;23.342;2022-09-16T07:16:23;94800.28;;;23.88;46.18
52957;BME280;38819;42.692;23.342;2022-09-16T07:18:53;94805.81;;;23.95;45.96
52957;BME280;38819;42.692;23.342;2022-09-16T07:21:21;94804.66;;;23.96;45.68
52957;BME280;38819;42.692;23.342;2022-09-16T07:23:49;94793.63;;;24.00;45.62
52957;BME280;38819;42.692;23.342;2022-09-16T07:26:19;94788.53;;;24.09;45.49
52957;BME280;38819;42.692;23.342;2022-09-16T07:28:47;94796.44;;;24.11;45.68
52957;BME280;38819;42.692;23.342;2022-09-16T07:31:18;94792.84;;;23.99;46.37
52957;BME280;38819;42.692;23.342;2022-09-16T07:33:46;94790.47;;;24.01;46.34
52957;BME280;38819;42.692;23.342;2022-09-16T07:36:14;94795.59;;;24.03;46.53
52957;BME280;38819;42.692;23.342;2022-09-16T07:38:41;94799.53;;;24.02;45.26
52957;BME280;38819;42.692;23.342;2022-09-16T07:43:38;94778.28;;;24.13;45.12
52957;BME280;38819;42.692;23.342;2022-09-16T07:46:05;94766.47;;;24.16;45.34
52957;BME280;38819;42.692;23.342;2022-09-16T07:48:31;94767.25;;;24.06;46.11
52957;BME280;38819;42.692;23.342;2022-09-16T07:50:58;94775.13;;;24.15;45.80
52957;BME280;38819;42.692;23.342;2022-09-16T07:53:25;94765.69;;;24.19;45.44
52957;BME280;38819;42.692;23.342;2022-09-16T07:55:52;94766.88;;;24.22;45.05
52957;BME280;38819;42.692;23.342;2022-09-16T07:58:18;94764.53;;;24.35;44.88
52957;BME280;38819;42.692;23.342;2022-09-16T08:00:44;94768.50;;;24.37;44.98
52957;BME280;38819;42.692;23.342;2022-09-16T08:03:09;94758.22;;;24.38;45.05
52957;BME280;38819;42.692;23.342;2022-09-16T08:05:35;94755.84;;;24.44;44.74
52957;BME280;38819;42.692;23.342;2022-09-16T08:08:00;94756.25;;;24.38;45.34
52957;BME280;38819;42.692;23.342;2022-09-16T08:10:26;94749.16;;;24.30;44.52
52957;BME280;38819;42.692;23.342;2022-09-16T08:12:52;94747.19;;;24.38;44.89
52957;BME280;38819;42.692;23.342;2022-09-16T08:15:17;94755.06;;;24.50;44.72
52957;BME280;38819;42.692;23.342;2022-09-16T08:17:43;94748.00;;;24.56;44.58
52957;BME280;38819;42.692;23.342;2022-09-16T08:20:08;94743.28;;;24.57;44.45
52957;BME280;38819;42.692;23.342;2022-09-16T08:22:34;94744.47;;;24.63;44.13
52957;BME280;38819;42.692;23.342;2022-09-16T08:24:59;94745.66;;;24.76;44.16
52957;BME280;38819;42.692;23.342;2022-09-16T08:27:25;94740.13;;;24.91;43.92
52957;BME280;38819;42.692;23.342;2022-09-16T08:29:50;94739.31;;;25.01;43.87
52957;BME280;38819;42.692;23.342;2022-09-16T08:32:16;94743.63;;;25.09;43.18
52957;BME280;38819;42.692;23.342;2022-09-16T08:34:41;94740.47;;;25.14;43.25
52957;BME280;38819;42.692;23.342;2022-09-16T08:37:07;94729.38;;;25.25;42.98
52957;BME280;38819;42.692;23.342;2022-09-16T08:39:33;94729.38;;;25.25;42.61
52957;BME280;38819;42.692;23.342;2022-09-16T08:42:30;94727.78;;;25.21;42.28
52957;BME280;38819;42.692;23.342;2022-09-16T08:45:11;94722.28;;;25.31;42.25
52957;BME280;38819;42.692;23.342;2022-09-16T08:50:14;94724.59;;;25.51;42.80
52957;BME280;38819;42.692;23.342;2022-09-16T08:52:42;94717.06;;;25.55;42.57
52957;BME280;38819;42.692;23.342;2022-09-16T08:55:17;94711.13;;;25.57;42.77
52957;BME280;38819;42.692;23.342;2022-09-16T08:57:55;94720.28;;;25.43;42.73
52957;BME280;38819;42.692;23.342;2022-09-16T09:00:22;94719.44;;;25.46;42.93
52957;BME280;38819;42.692;23.342;2022-09-16T09:03:12;94718.31;;;25.40;42.80
52957;BME280;38819;42.692;23.342;2022-09-16T09:05:51;94718.75;;;25.31;42.93
52957;BME280;38819;42.692;23.342;2022-09-16T09:16:38;94730.97;;;25.30;43.15
52957;BME280;38819;42.692;23.342;2022-09-16T09:19:28;94728.19;;;25.33;43.42
52957;BME280;38819;42.692;23.342;2022-09-16T09:25:05;94731.72;;;25.41;42.97
52957;BME280;38819;42.692;23.342;2022-09-16T09:27:41;94729.34;;;25.43;43.62
52957;BME280;38819;42.692;23.342;2022-09-16T09:30:18;94725.41;;;25.44;43.88
52957;BME280;38819;42.692;23.342;2022-09-16T09:41:56;94719.84;;;25.51;43.64
52957;BME280;38819;42.692;23.342;2022-09-16T09:47:04;94722.19;;;25.57;43.78
52957;BME280;38819;42.692;23.342;2022-09-16T09:49:40;94732.81;;;25.65;43.70
52957;BME280;38819;42.692;23.342;2022-09-16T09:54:50;94732.38;;;25.78;43.01
52957;BME280;38819;42.692;23.342;2022-09-16T09:57:31;94735.50;;;25.80;43.35
52957;BME280;38819;42.692;23.342;2022-09-16T10:00:13;94744.97;;;25.82;43.20
52957;BME280;38819;42.692;23.342;2022-09-16T10:02:41;94756.00;;;25.86;43.30
52957;BME280;38819;42.692;23.342;2022-09-16T10:05:28;94766.31;;;25.85;44.10
52957;BME280;38819;42.692;23.342;2022-09-16T10:07:57;94771.06;;;25.81;44.17
52957;BME280;38819;42.692;23.342;2022-09-16T10:10:26;94792.84;;;25.68;45.04
52957;BME280;38819;42.692;23.342;2022-09-16T10:12:53;94796.03;;;25.60;45.06
52957;BME280;38819;42.692;23.342;2022-09-16T10:15:26;94800.41;;;25.54;45.64
52957;BME280;38819;42.692;23.342;2022-09-16T10:17:52;94818.56;;;25.55;47.00
52957;BME280;38819;42.692;23.342;2022-09-16T10:20:38;94817.44;;;25.41;47.49
52957;BME280;38819;42.692;23.342;2022-09-16T10:23:08;94854.53;;;25.37;47.84
52957;BME280;38819;42.692;23.342;2022-09-16T10:25:35;94896.81;;;25.30;48.13
52957;BME280;38819;42.692;23.342;2022-09-16T10:28:04;94908.63;;;25.23;49.26
52957;BME280;38819;42.692;23.342;2022-09-16T10:30:45;94936.63;;;24.96;51.85
52957;BME280;38819;42.692;23.342;2022-09-16T10:33:28;94961.38;;;24.57;54.77
52957;BME280;38819;42.692;23.342;2022-09-16T10:36:19;94990.44;;;24.29;56.95
52957;BME280;38819;42.692;23.342;2022-09-16T10:38:52;94986.34;;;24.09;57.72
52957;BME280;38819;42.692;23.342;2022-09-16T10:41:23;94979.38;;;23.70;56.93
52957;BME280;38819;42.692;23.342;2022-09-16T10:46:17;94990.22;;;23.45;59.19
52957;BME280;38819;42.692;23.342;2022-09-16T10:48:43;94986.19;;;23.35;60.08
52957;BME280;38819;42.692;23.342;2022-09-16T10:51:27;94971.94;;;23.22;60.49
52957;BME280;38819;42.692;23.342;2022-09-16T10:53:57;94978.97;;;23.20;61.30
52957;BME280;38819;42.692;23.342;2022-09-16T10:56:25;94969.56;;;23.21;62.50
52957;BME280;38819;42.692;23.342;2022-09-16T10:59:09;94962.47;;;23.20;63.78
52957;BME280;38819;42.692;23.342;2022-09-16T11:17:33;94823.09;;;23.15;60.76
52957;BME280;38819;42.692;23.342;2022-09-16T11:26:05;94806.88;;;23.69;59.25
52957;BME280;38819;42.692;23.342;2022-09-16T11:28:51;94790.03;;;23.85;58.73
52957;BME280;38819;42.692;23.342;2022-09-16T12:01:30;94740.78;;;23.87;54.52
52957;BME280;38819;42.692;23.342;2022-09-16T12:09:27;94749.94;;;24.27;50.71
52957;BME280;38819;42.692;23.342;2022-09-16T12:12:04;94756.25;;;24.31;51.12
52957;BME280;38819;42.692;23.342;2022-09-16T12:14:38;94760.19;;;24.23;50.38
52957;BME280;38819;42.692;23.342;2022-09-16T12:17:11;94771.59;;;24.18;56.36
52957;BME280;38819;42.692;23.342;2022-09-16T12:22:50;94772.94;;;23.54;61.16
52957;BME280;38819;42.692;23.342;2022-09-16T12:25:25;94775.25;;;23.45;61.08
52957;BME280;38819;42.692;23.342;2022-09-16T12:27:57;94780.75;;;23.41;61.61
52957;BME280;38819;42.692;23.342;2022-09-16T12:30:33;94774.31;;;23.16;61.02
52957;BME280;38819;42.692;23.342;2022-09-16T12:35:57;94765.72;;;23.24;60.65
52957;BME280;38819;42.692;23.342;2022-09-16T12:38:24;94770.00;;;23.22;61.44
52957;BME280;38819;42.692;23.342;2022-09-16T12:41:11;94771.59;;;23.19;61.61
52957;BME280;38819;42.692;23.342;2022-09-16T12:52:49;94806.69;;;22.78;62.19
52957;BME280;38819;42.692;23.342;2022-09-16T12:56:04;94811.81;;;22.83;61.79
52957;BME280;38819;42.692;23.342;2022-09-16T13:01:36;94830.25;;;22.75;62.28
52957;BME280;38819;42.692;23.342;2022-09-16T13:04:09;94844.84;;;22.79;62.90
52957;BME280;38819;42.692;23.342;2022-09-16T13:06:44;94850.25;;;22.68;62.99
52957;BME280;38819;42.692;23.342;2022-09-16T13:09:20;94857.78;;;22.75;62.90
52957;BME280;38819;42.692;23.342;2022-09-16T13:11:58;94855.75;;;22.68;64.26
52957;BME280;38819;42.692;23.342;2022-09-16T13:14:36;94870.66;;;22.64;64.77
52957;BME280;38819;42.692;23.342;2022-09-16T13:17:08;94880.03;;;22.55;65.01
52957;BME280;38819;42.692;23.342;2022-09-16T13:19:44;94889.03;;;22.52;65.07
52957;BME280;38819;42.692;23.342;2022-09-16T13:28:03;94891.97;;;22.70;66.53
52957;BME280;38819;42.692;23.342;2022-09-16T13:35:34;94870.69;;;22.67;65.91
52957;BME280;38819;42.692;23.342;2022-09-16T13:40:58;94834.09;;;22.67;66.15
52957;BME280;38819;42.692;23.342;2022-09-16T13:43:36;94814.78;;;22.60;67.12
52957;BME280;38819;42.692;23.342;2022-09-16T13:46:36;94794.72;;;22.59;64.18
52957;BME280;38819;42.692;23.342;2022-09-16T13:51:28;94743.72;;;22.72;66.45
52957;BME280;38819;42.692;23.342;2022-09-16T13:53:54;94743.78;;;22.83;67.25
52957;BME280;38819;42.692;23.342;2022-09-16T13:59:31;94732.13;;;23.04;65.42
52957;BME280;38819;42.692;23.342;2022-09-16T14:10:10;94749.25;;;23.39;65.11
52957;BME280;38819;42.692;23.342;2022-09-16T14:15:12;94763.81;;;23.36;65.89
52957;BME280;38819;42.692;23.342;2022-09-16T14:17:42;94790.56;;;23.35;64.99
52957;BME280;38819;42.692;23.342;2022-09-16T14:20:20;94813.03;;;23.37;65.59
52957;BME280;38819;42.692;23.342;2022-09-16T14:22:46;94815.72;;;23.30;65.78
52957;BME280;38819;42.692;23.342;2022-09-16T14:25:47;94798.44;;;23.33;65.69
52957;BME280;38819;42.692;23.342;2022-09-16T14:28:17;94777.91;;;23.23;65.55
52957;BME280;38819;42.692;23.342;2022-09-16T14:31:03;94776.34;;;23.22;65.94
52957;BME280;38819;42.692;23.342;2022-09-16T14:33:34;94766.50;;;23.28;65.46
52957;BME280;38819;42.692;23.342;2022-09-16T14:36:09;94760.97;;;23.21;65.13
52957;BME280;38819;42.692;23.342;2022-09-16T14:38:44;94761.34;;;23.20;66.35
52957;BME280;38819;42.692;23.342;2022-09-16T14:41:21;94752.09;;;22.90;67.55
52957;BME280;38819;42.692;23.342;2022-09-16T14:43:47;94750.91;;;22.91;68.37
52957;BME280;38819;42.692;23.342;2022-09-16T14:46:13;94758.03;;;22.96;68.48
52957;BME280;38819;42.692;23.342;2022-09-16T14:48:40;94756.44;;;22.91;68.91
52957;BME280;38819;42.692;23.342;2022-09-16T14:51:22;94765.44;;;22.88;68.67
52957;BME280;38819;42.692;23.342;2022-09-16T14:53:53;94758.34;;;22.84;68.94
52957;BME280;38819;42.692;23.342;2022-09-16T14:56:20;94761.75;;;22.66;69.32
52957;BME280;38819;42.692;23.342;2022-09-16T14:58:46;94766.03;;;22.60;70.00
52957;BME280;38819;42.692;23.342;2022-09-16T15:01:25;94775.81;;;22.54;69.65
52957;BME280;38819;42.692;23.342;2022-09-16T15:03:59;94779.78;;;22.60;69.39
52957;BME280;38819;42.692;23.342;2022-09-16T15:06:30;94775.44;;;22.55;69.73
52957;BME280;38819;42.692;23.342;2022-09-16T15:09:02;94773.06;;;22.54;68.50
52957;BME280;38819;42.692;23.342;2022-09-16T15:11:34;94765.28;;;22.67;68.36
52957;BME280;38819;42.692;23.342;2022-09-16T15:14:04;94770.13;;;22.81;68.05
52957;BME280;38819;42.692;23.342;2022-09-16T15:16:30;94774.91;;;22.91;66.27
52957;BME280;38819;42.692;23.342;2022-09-16T15:18:59;94776.47;;;22.88;66.22
52957;BME280;38819;42.692;23.342;2022-09-16T15:21:34;94776.53;;;22.96;64.11
52957;BME280;38819;42.692;23.342;2022-09-16T15:24:05;94770.94;;;22.88;62.40
52957;BME280;38819;42.692;23.342;2022-09-16T15:26:42;94736.41;;;22.98;62.62
52957;BME280;38819;42.692;23.342;2022-09-16T15:31:43;94674.72;;;23.10;62.64
52957;BME280;38819;42.692;23.342;2022-09-16T15:39:39;94687.34;;;23.11;61.45
52957;BME280;38819;42.692;23.342;2022-09-16T15:42:11;94688.91;;;23.12;61.12
52957;BME280;38819;42.692;23.342;2022-09-16T15:45:14;94699.06;;;23.01;62.00
52957;BME280;38819;42.692;23.342;2022-09-16T15:47:52;94689.56;;;22.91;63.38
52957;BME280;38819;42.692;23.342;2022-09-16T15:50:20;94679.69;;;22.86;64.93
52957;BME280;38819;42.692;23.342;2022-09-16T15:52:54;94669.41;;;22.76;67.62
52957;BME280;38819;42.692;23.342;2022-09-16T16:03:51;94673.72;;;21.77;73.20
52957;BME280;38819;42.692;23.342;2022-09-16T16:06:18;94674.81;;;21.69;73.95
52957;BME280;38819;42.692;23.342;2022-09-16T16:08:49;94666.59;;;21.72;73.64
52957;BME280;38819;42.692;23.342;2022-09-16T16:11:18;94666.59;;;21.69;72.51
52957;BME280;38819;42.692;23.342;2022-09-16T16:13:45;94664.22;;;21.67;71.63
52957;BME280;38819;42.692;23.342;2022-09-16T16:16:13;94662.72;;;21.77;71.74
52957;BME280;38819;42.692;23.342;2022-09-16T16:18:40;94665.50;;;21.80;70.44
52957;BME280;38819;42.692;23.342;2022-09-16T16:21:14;94652.56;;;21.81;70.32
52957;BME280;38819;42.692;23.342;2022-09-16T16:23:40;94656.38;;;21.69;70.75